createdAt,value
2023-05-01T00:00:00.000Z,13.2
2023-05-01T00:01:00.000Z,13.1
2023-05-01T00:02:00.000Z,12.7
2023-05-01T00:03:00.000Z,12.6
2023-05-01T00:04:00.000Z,12.6
2023-05-01T00:05:00.000Z,12.7
2023-05-01T00:06:00.000Z,12.7
2023-05-01T00:07:00.000Z,12.7
2023-05-01T00:08:00.000Z,12.5
2023-05-01T00:09:00.000Z,12.4
2023-05-01T00:10:00.000Z,12.6
2023-05-01T00:11:00.000Z,12.6
2023-05-01T00:12:00.000Z,12.4
2023-05-01T00:13:00.000Z,12.1
2023-05-01T00:14:00.000Z,12.0
2023-05-01T00:15:00.000Z,12.0
2023-05-01T00:16:00.000Z,12.0
2023-05-01T00:17:00.000Z,12.1
2023-05-01T00:18:00.000Z,12.2
2023-05-01T00:19:00.000Z,12.4
2023-05-01T00:21:00.000Z,11.9
2023-05-01T00:22:00.000Z,11.9
2023-05-01T00:23:00.000Z,12.2
2023-05-01T00:24:00.000Z,12.4
2023-05-01T00:26:00.000Z,12.4
2023-05-01T00:27:00.000Z,12.5
2023-05-01T00:28:00.000Z,12.3
2023-05-01T00:29:00.000Z,12.4
2023-05-01T00:30:00.000Z,12.1
2023-05-01T00:31:00.000Z,12.1
2023-05-01T00:32:00.000Z,12.1
2023-05-01T00:33:00.000Z,12.1
2023-05-01T00:34:00.000Z,12.0
2023-05-01T00:35:00.000Z,12.0
2023-05-01T00:36:00.000Z,12.1
2023-05-01T00:37:00.000Z,12.2
2023-05-01T00:38:00.000Z,12.2
2023-05-01T00:39:00.000Z,12.1
2023-05-01T00:40:00.000Z,12.1
2023-05-01T00:41:00.000Z,11.8
2023-05-01T00:42:00.000Z,11.5
2023-05-01T00:43:00.000Z,11.1
2023-05-01T00:44:00.000Z,10.7
2023-05-01T00:45:00.000Z,10.4
2023-05-01T00:46:00.000Z,10.3
2023-05-01T00:47:00.000Z,10.2
2023-05-01T00:48:00.000Z,10.3
2023-05-01T00:49:00.000Z,10.4
2023-05-01T00:50:00.000Z,10.3
2023-05-01T00:51:00.000Z,10.5
2023-05-01T00:52:00.000Z,10.4
2023-05-01T00:53:00.000Z,10.4
2023-05-01T00:54:00.000Z,10.2
2023-05-01T00:55:00.000Z,9.8
2023-05-01T00:56:00.000Z,9.6
2023-05-01T00:57:00.000Z,9.4
2023-05-01T00:58:00.000Z,9.3
2023-05-01T00:59:00.000Z,9.2
2023-05-01T01:01:00.000Z,8.9
2023-05-01T01:02:00.000Z,8.8
2023-05-01T01:03:00.000Z,8.8
2023-05-01T01:04:00.000Z,8.8
2023-05-01T01:05:00.000Z,8.7
2023-05-01T01:06:00.000Z,8.4
2023-05-01T01:07:00.000Z,8.3
2023-05-01T01:08:00.000Z,8.3
2023-05-01T01:09:00.000Z,8.1
2023-05-01T01:10:00.000Z,8.1
2023-05-01T01:11:00.000Z,8.0
2023-05-01T01:12:00.000Z,8.0
2023-05-01T01:13:00.000Z,8.0
2023-05-01T01:14:00.000Z,8.0
2023-05-01T01:15:00.000Z,8.0
2023-05-01T01:16:00.000Z,8.1
2023-05-01T01:17:00.000Z,8.0
2023-05-01T01:18:00.000Z,8.0
2023-05-01T01:19:00.000Z,7.9
2023-05-01T01:20:00.000Z,7.9
2023-05-01T01:21:00.000Z,7.9
2023-05-01T01:22:00.000Z,7.9
2023-05-01T01:23:00.000Z,7.9
2023-05-01T01:24:00.000Z,7.7
2023-05-01T01:25:00.000Z,7.6
2023-05-01T01:26:00.000Z,7.4
2023-05-01T01:27:00.000Z,7.3
2023-05-01T01:28:00.000Z,7.3
2023-05-01T01:29:00.000Z,7.3
2023-05-01T01:30:00.000Z,7.3
2023-05-01T01:31:00.000Z,7.2
2023-05-01T01:32:00.000Z,7.1
2023-05-01T01:33:00.000Z,7.1
2023-05-01T01:34:00.000Z,7.3
2023-05-01T01:35:00.000Z,7.4
2023-05-01T01:36:00.000Z,7.5
2023-05-01T01:37:00.000Z,7.7
2023-05-01T01:38:00.000Z,7.7
2023-05-01T01:39:00.000Z,7.7
2023-05-01T01:40:00.000Z,7.5
2023-05-01T01:41:00.000Z,7.3
2023-05-01T01:42:00.000Z,7.1
2023-05-01T01:43:00.000Z,7.0
2023-05-01T01:44:00.000Z,6.8
2023-05-01T01:48:00.000Z,7.0
2023-05-01T01:52:00.000Z,7.0
2023-05-01T01:53:00.000Z,7.0
2023-05-01T01:54:00.000Z,6.7
2023-05-01T01:55:00.000Z,6.6
2023-05-01T01:56:00.000Z,6.7
2023-05-01T01:57:00.000Z,6.5
2023-05-01T01:58:00.000Z,6.6
2023-05-01T01:59:00.000Z,6.2
2023-05-01T02:00:00.000Z,6.1
